createdAt,value
2022-08-24T00:00:13.306Z,98830.00
2022-08-24T00:02:44.622Z,98837.00
2022-08-24T00:05:16.782Z,98833.00
2022-08-24T00:07:49.672Z,98827.00
2022-08-24T00:10:21.285Z,98827.00
2022-08-24T00:12:52.313Z,98831.00
2022-08-24T00:15:23.461Z,98831.00
2022-08-24T00:17:54.325Z,98833.00
2022-08-24T00:20:26.670Z,98830.00
2022-08-24T00:22:57.665Z,98838.00
2022-08-24T00:25:28.649Z,98836.00
2022-08-24T00:28:00.200Z,98821.00
2022-08-24T00:30:31.623Z,98831.00
2022-08-24T00:33:03.096Z,98830.00
2022-08-24T00:35:34.315Z,98840.00
2022-08-24T00:38:05.527Z,98850.00
2022-08-24T00:40:41.847Z,98836.00
2022-08-24T00:43:13.620Z,98833.00
2022-08-24T00:46:03.976Z,98828.00
2022-08-24T00:48:41.674Z,98834.00
2022-08-24T00:51:22.766Z,98827.00
2022-08-24T00:54:05.402Z,98835.00
2022-08-24T00:56:47.035Z,98833.00
2022-08-24T00:59:34.654Z,98841.00
2022-08-24T01:02:15.291Z,98836.00
2022-08-24T01:04:54.785Z,98832.00
2022-08-24T01:07:30.359Z,98836.00
2022-08-24T01:10:07.975Z,98828.00
2022-08-24T01:12:42.479Z,98861.00
2022-08-24T01:15:35.191Z,98839.00
2022-08-24T01:18:32.108Z,98837.00
2022-08-24T01:21:16.326Z,98832.00
2022-08-24T01:23:59.055Z,98842.00
2022-08-24T01:26:44.266Z,98842.00
2022-08-24T01:29:23.978Z,98840.00
2022-08-24T01:31:56.441Z,98844.00
2022-08-24T01:34:27.648Z,98843.00
2022-08-24T01:37:00.266Z,98846.00
2022-08-24T01:39:47.406Z,98844.00
2022-08-24T01:42:18.595Z,98840.00
2022-08-24T01:44:49.586Z,98843.00
2022-08-24T01:47:20.987Z,98848.00
2022-08-24T01:49:52.042Z,98843.00
2022-08-24T01:52:29.703Z,98854.00
2022-08-24T01:55:10.217Z,98852.00
2022-08-24T01:57:41.229Z,98854.00
2022-08-24T02:00:15.129Z,98855.00
2022-08-24T02:02:46.687Z,98849.00
2022-08-24T02:05:18.376Z,98856.00
2022-08-24T02:07:49.381Z,98847.00
2022-08-24T02:10:21.405Z,98857.00
2022-08-24T02:12:58.872Z,98849.00
2022-08-24T02:15:40.311Z,98865.00
2022-08-24T02:18:14.928Z,98855.00
2022-08-24T02:20:47.763Z,98861.00
2022-08-24T02:23:19.773Z,98864.00
2022-08-24T02:25:52.242Z,98859.00
2022-08-24T02:28:23.394Z,98866.00
2022-08-24T02:30:54.424Z,98860.00
2022-08-24T02:33:25.908Z,98864.00
2022-08-24T02:35:57.085Z,98869.00
2022-08-24T02:38:28.861Z,98868.00
2022-08-24T02:41:00.470Z,98861.00
2022-08-24T02:43:31.764Z,98865.00
2022-08-24T02:46:06.643Z,98859.00
2022-08-24T02:48:44.647Z,98862.00
2022-08-24T02:51:26.925Z,98858.00
2022-08-24T02:54:03.006Z,98859.00
2022-08-24T02:56:33.935Z,98854.00
2022-08-24T02:59:04.882Z,98849.00
2022-08-24T03:01:36.010Z,98859.00
2022-08-24T03:04:07.508Z,98855.00
2022-08-24T03:06:38.590Z,98844.00
2022-08-24T03:09:09.641Z,98850.00
2022-08-24T03:11:42.677Z,98848.00
2022-08-24T03:14:18.300Z,98847.00
2022-08-24T03:16:49.258Z,98843.00
2022-08-24T03:19:20.320Z,98848.00
2022-08-24T03:21:51.256Z,98848.00
2022-08-24T03:24:23.450Z,98839.00
2022-08-24T03:26:54.506Z,98840.00
2022-08-24T03:29:25.413Z,98848.00
2022-08-24T03:31:57.450Z,98835.00
2022-08-24T03:34:30.283Z,98842.00
2022-08-24T03:37:01.212Z,98841.00
2022-08-24T03:39:32.652Z,98840.00
2022-08-24T03:42:03.871Z,98845.00
2022-08-24T03:44:35.144Z,98845.00
2022-08-24T03:47:06.448Z,98851.00
2022-08-24T03:49:40.219Z,98843.00
2022-08-24T03:52:11.138Z,98836.00
2022-08-24T03:54:42.139Z,98838.00
2022-08-24T03:57:13.832Z,98838.00
2022-08-24T03:59:46.659Z,98842.00
2022-08-24T04:02:18.934Z,98844.00
2022-08-24T04:04:50.502Z,98844.00
2022-08-24T04:07:21.471Z,98847.00
2022-08-24T04:09:52.478Z,98843.00
2022-08-24T04:12:23.734Z,98849.00
2022-08-24T04:14:56.120Z,98855.00
2022-08-24T04:17:27.048Z,98850.00
2022-08-24T04:19:58.673Z,98864.00
2022-08-24T04:22:34.267Z,98845.00
2022-08-24T04:25:09.199Z,98850.00
2022-08-24T04:27:41.548Z,98853.00
2022-08-24T04:30:14.540Z,98880.00
2022-08-24T04:32:45.763Z,98854.00
2022-08-24T04:35:16.741Z,98851.00
2022-08-24T04:37:47.655Z,98854.00
2022-08-24T04:40:19.385Z,98864.00
2022-08-24T04:42:50.714Z,98855.00
2022-08-24T04:45:21.662Z,98860.00
2022-08-24T04:47:52.754Z,98862.00
2022-08-24T04:50:24.791Z,98868.00
2022-08-24T04:52:55.645Z,98867.00
2022-08-24T04:55:26.711Z,98868.00
2022-08-24T04:57:57.785Z,98877.00
2022-08-24T05:00:28.754Z,98870.00
2022-08-24T05:02:59.950Z,98877.00
2022-08-24T05:05:31.149Z,98878.00
2022-08-24T05:08:03.417Z,98878.00
2022-08-24T05:10:35.338Z,98896.00
2022-08-24T05:13:07.461Z,98884.00
2022-08-24T05:15:46.780Z,98881.00
2022-08-24T05:18:17.786Z,98877.00
2022-08-24T05:20:48.812Z,98878.00
2022-08-24T05:23:19.822Z,98879.00
2022-08-24T05:25:50.788Z,98887.00
2022-08-24T05:28:21.849Z,98901.00
2022-08-24T05:30:57.323Z,98886.00
2022-08-24T05:33:28.819Z,98876.00
2022-08-24T05:35:59.771Z,98883.00
2022-08-24T05:38:36.700Z,98886.00
2022-08-24T05:41:07.672Z,98886.00
2022-08-24T05:43:39.554Z,98892.00
2022-08-24T05:46:10.828Z,98884.00
2022-08-24T05:48:42.308Z,98884.00
2022-08-24T05:51:14.162Z,98891.00
2022-08-24T05:53:45.703Z,98894.00
2022-08-24T05:56:19.508Z,98900.00
2022-08-24T05:58:50.639Z,98897.00
2022-08-24T06:01:27.129Z,98899.00
2022-08-24T06:03:59.322Z,98904.00
2022-08-24T06:06:31.009Z,98908.00
2022-08-24T06:09:02.361Z,98902.00
2022-08-24T06:11:39.511Z,98911.00
2022-08-24T06:14:14.694Z,98905.00
2022-08-24T06:16:47.574Z,98907.00
2022-08-24T06:19:21.673Z,98910.00
2022-08-24T06:21:53.453Z,98911.00
2022-08-24T06:24:44.558Z,98902.00
2022-08-24T06:27:22.833Z,98906.00
2022-08-24T06:30:01.278Z,98904.00
2022-08-24T06:32:32.267Z,98931.00
2022-08-24T06:35:03.968Z,98901.00
2022-08-24T06:37:34.859Z,98902.00
2022-08-24T06:40:07.509Z,98895.00
2022-08-24T06:42:38.465Z,98896.00
2022-08-24T06:45:10.526Z,98903.00
2022-08-24T06:47:42.370Z,98904.00
2022-08-24T06:50:15.586Z,98910.00
2022-08-24T06:52:47.067Z,98898.00
2022-08-24T06:55:18.160Z,98916.00
2022-08-24T06:57:52.254Z,98908.00
2022-08-24T07:00:25.099Z,98909.00
2022-08-24T07:02:56.178Z,98910.00
2022-08-24T07:05:27.295Z,98909.00
2022-08-24T07:07:59.815Z,98910.00
2022-08-24T07:10:31.372Z,98911.00
2022-08-24T07:13:02.432Z,98907.00
2022-08-24T12:17:12.781Z,98814.00
2022-08-24T12:20:33.923Z,98810.00
2022-08-24T12:23:25.491Z,98820.00
2022-08-24T12:26:10.570Z,98810.00
2022-08-24T12:28:55.865Z,98813.00
2022-08-24T12:32:10.841Z,98801.00
2022-08-24T12:34:49.755Z,98812.00
2022-08-24T12:37:53.661Z,98801.00
2022-08-24T12:40:54.868Z,98793.00
2022-08-24T12:43:42.810Z,98805.00
2022-08-24T12:46:18.456Z,98811.00
2022-08-24T12:49:17.236Z,98808.00
2022-08-24T12:52:36.261Z,98807.00
2022-08-24T12:55:19.821Z,98810.00
2022-08-24T12:58:35.146Z,98818.00
2022-08-24T13:01:09.436Z,98807.00
2022-08-24T13:03:46.624Z,98814.00
2022-08-24T13:06:29.125Z,98807.00
2022-08-24T13:09:35.242Z,98810.00
2022-08-24T13:12:46.676Z,98808.00
2022-08-24T13:15:23.753Z,98799.00
2022-08-24T13:18:02.999Z,98803.00
2022-08-24T13:20:40.283Z,98810.00
2022-08-24T13:23:14.500Z,98796.00
2022-08-24T13:25:52.811Z,98809.00
2022-08-24T13:28:23.672Z,98802.00
2022-08-24T13:31:03.536Z,98802.00
2022-08-24T13:34:03.184Z,98796.00
2022-08-24T13:37:22.406Z,98796.00
2022-08-24T13:40:27.912Z,98798.00
2022-08-24T13:43:44.764Z,98800.00
2022-08-24T13:46:40.168Z,98792.00
2022-08-24T13:50:11.403Z,98796.00
2022-08-24T13:53:27.259Z,98788.00
2022-08-24T13:56:29.694Z,98788.00
2022-08-24T13:59:16.583Z,98792.00
2022-08-24T14:02:35.422Z,98797.00
2022-08-24T14:05:38.403Z,98785.00
2022-08-24T14:08:46.976Z,98779.00
2022-08-24T14:11:56.114Z,98792.00
2022-08-24T14:15:16.137Z,98792.00
2022-08-24T14:17:56.938Z,98784.00
2022-08-24T14:21:02.864Z,98778.00
2022-08-24T14:24:45.782Z,98777.00
2022-08-24T14:28:01.383Z,98779.00
2022-08-24T14:30:33.872Z,98764.00
2022-08-24T14:33:27.158Z,98770.00
2022-08-24T14:36:02.234Z,98774.00
2022-08-24T14:42:13.209Z,98776.00
2022-08-24T14:45:07.300Z,98769.00
2022-08-24T14:48:19.935Z,98770.00
2022-08-24T14:52:07.619Z,98766.00
2022-08-24T14:55:33.340Z,98762.00
2022-08-24T14:58:28.893Z,98757.00
2022-08-24T15:01:15.283Z,98751.00
2022-08-24T15:04:14.946Z,98746.00
2022-08-24T15:06:53.308Z,98751.00
2022-08-24T15:09:38.682Z,98746.00
2022-08-24T15:12:54.939Z,98756.00
2022-08-24T15:15:55.399Z,98751.00
2022-08-24T15:19:23.083Z,98754.00
2022-08-24T15:22:06.968Z,98749.00
2022-08-24T15:25:08.120Z,98741.00
2022-08-24T15:27:55.960Z,98734.00
2022-08-24T15:30:34.311Z,98741.00
2022-08-24T15:33:19.535Z,98749.00
2022-08-24T15:36:07.400Z,98749.00
2022-08-24T15:38:40.714Z,98739.00
2022-08-24T15:41:28.820Z,98742.00
2022-08-24T15:44:21.568Z,98753.00
2022-08-24T15:47:01.861Z,98749.00
2022-08-24T15:50:06.680Z,98752.00
2022-08-24T15:53:08.348Z,98748.00
2022-08-24T15:55:47.192Z,98745.00
2022-08-24T15:58:34.148Z,98751.00
2022-08-24T16:01:30.191Z,98756.00
2022-08-24T16:04:34.600Z,98760.00
2022-08-24T16:07:05.687Z,98748.00
2022-08-24T16:09:44.922Z,98745.00
2022-08-24T16:12:32.585Z,98751.00
2022-08-24T16:15:18.063Z,98745.00
2022-08-24T16:17:54.748Z,98750.00
2022-08-24T16:20:37.059Z,98749.00
2022-08-24T16:23:41.841Z,98753.00
2022-08-24T16:26:25.398Z,98750.00
2022-08-24T16:29:05.571Z,98750.00
2022-08-24T16:32:51.111Z,98744.00
2022-08-24T16:35:27.953Z,98755.00
2022-08-24T16:38:01.697Z,98752.00
2022-08-24T16:40:33.927Z,98749.00
2022-08-24T16:43:04.928Z,98753.00
2022-08-24T16:45:37.042Z,98747.00
2022-08-24T16:48:10.661Z,98758.00
2022-08-24T16:50:42.105Z,98750.00
2022-08-24T16:53:13.461Z,98760.00
2022-08-24T16:55:44.502Z,98759.00
2022-08-24T16:58:16.434Z,98758.00
2022-08-24T17:00:47.479Z,98760.00
2022-08-24T17:03:21.789Z,98756.00
2022-08-24T17:05:52.897Z,98761.00
2022-08-24T17:08:25.233Z,98755.00
2022-08-24T17:10:56.544Z,98756.00
2022-08-24T17:13:48.550Z,98759.00
2022-08-24T17:16:23.904Z,98758.00
2022-08-24T17:18:58.712Z,98765.00
2022-08-24T17:21:29.797Z,98764.00
2022-08-24T17:24:05.405Z,98764.00
2022-08-24T17:26:37.298Z,98759.00
2022-08-24T17:29:19.186Z,98765.00
2022-08-24T17:31:52.777Z,98768.00
2022-08-24T17:34:27.727Z,98772.00
2022-08-24T17:36:59.779Z,98770.00
2022-08-24T17:39:31.079Z,98770.00
2022-08-24T17:42:03.607Z,98769.00
2022-08-24T17:44:37.122Z,98782.00
2022-08-24T17:47:42.398Z,98785.00
2022-08-24T17:50:41.112Z,98792.00
2022-08-24T17:53:15.198Z,98788.00
2022-08-24T17:55:46.650Z,98787.00
2022-08-24T17:58:18.750Z,98786.00
2022-08-24T18:00:50.770Z,98800.00
2022-08-24T18:03:22.838Z,98791.00
2022-08-24T18:05:59.973Z,98797.00
2022-08-24T18:08:31.147Z,98800.00
2022-08-24T18:11:02.099Z,98796.00
2022-08-24T18:13:33.217Z,98797.00
2022-08-24T18:16:04.981Z,98804.00
2022-08-24T18:18:36.959Z,98808.00
2022-08-24T18:21:07.964Z,98800.00
2022-08-24T18:23:43.371Z,98807.00
2022-08-24T18:26:27.998Z,98806.00
2022-08-24T18:29:09.206Z,98803.00
2022-08-24T18:31:40.869Z,98810.00
2022-08-24T18:34:18.900Z,98800.00
2022-08-24T18:36:50.047Z,98803.00
2022-08-24T18:39:21.286Z,98815.00
2022-08-24T18:41:53.082Z,98817.00
2022-08-24T18:44:27.219Z,98818.00
2022-08-24T18:47:01.965Z,98823.00
2022-08-24T18:49:33.011Z,98819.00
2022-08-24T18:52:07.539Z,98822.00
2022-08-24T18:54:44.802Z,98821.00
2022-08-24T18:57:16.379Z,98816.00
2022-08-24T18:59:49.256Z,98824.00
2022-08-24T19:02:33.539Z,98831.00
2022-08-24T19:05:18.979Z,98830.00
2022-08-24T19:07:52.627Z,98822.00
2022-08-24T19:10:27.638Z,98829.00
2022-08-24T19:13:07.857Z,98832.00
2022-08-24T19:15:39.934Z,98834.00
2022-08-24T19:18:11.748Z,98847.00
2022-08-24T19:20:49.180Z,98830.00
2022-08-24T19:23:30.158Z,98828.00
2022-08-24T19:26:02.830Z,98836.00
2022-08-24T19:28:33.872Z,98841.00
2022-08-24T19:31:12.249Z,98838.00
2022-08-24T19:33:46.588Z,98840.00
2022-08-24T19:36:22.357Z,98843.00
2022-08-24T19:38:53.432Z,98846.00
2022-08-24T19:41:36.539Z,98835.00
2022-08-24T19:44:27.325Z,98841.00
2022-08-24T19:46:59.439Z,98841.00
2022-08-24T19:49:30.832Z,98835.00
2022-08-24T19:52:03.186Z,98853.00
2022-08-24T19:54:39.282Z,98836.00
2022-08-24T19:57:41.706Z,98843.00
2022-08-24T20:00:18.466Z,98839.00
2022-08-24T20:02:52.710Z,98837.00
2022-08-24T20:05:28.303Z,98838.00
2022-08-24T20:08:00.627Z,98846.00
2022-08-24T20:10:33.908Z,98846.00
2022-08-24T20:13:05.256Z,98845.00
2022-08-24T20:15:36.356Z,98846.00
2022-08-24T20:18:08.014Z,98844.00
2022-08-24T20:20:38.984Z,98836.00
2022-08-24T20:23:10.084Z,98853.00
2022-08-24T20:25:41.245Z,98844.00
2022-08-24T20:28:28.660Z,98842.00
2022-08-24T20:31:00.725Z,98849.00
2022-08-24T20:33:31.901Z,98844.00
2022-08-24T20:36:03.271Z,98846.00
2022-08-24T20:38:35.037Z,98851.00
2022-08-24T20:41:06.103Z,98854.00
2022-08-24T20:43:36.977Z,98849.00
2022-08-24T20:46:09.491Z,98844.00
2022-08-24T20:48:43.161Z,98847.00
2022-08-24T20:51:14.465Z,98842.00
2022-08-24T20:53:45.810Z,98846.00
2022-08-24T20:56:28.715Z,98845.00
2022-08-24T20:59:06.943Z,98838.00
2022-08-24T21:01:41.718Z,98851.00
2022-08-24T21:04:13.146Z,98833.00
2022-08-24T21:06:45.189Z,98842.00
2022-08-24T21:09:16.632Z,98842.00
2022-08-24T21:11:47.607Z,98837.00
2022-08-24T21:14:19.990Z,98841.00
2022-08-24T21:16:59.152Z,98843.00
2022-08-24T21:19:30.758Z,98868.00
2022-08-24T21:22:01.718Z,98842.00
2022-08-24T21:24:32.705Z,98843.00
2022-08-24T21:27:06.182Z,98849.00
2022-08-24T21:29:37.107Z,98845.00
2022-08-24T21:32:26.574Z,98850.00
2022-08-24T21:34:57.489Z,98850.00
2022-08-24T21:37:29.054Z,98862.00
2022-08-24T21:40:00.292Z,98846.00
2022-08-24T21:42:31.416Z,98841.00
2022-08-24T21:45:05.352Z,98850.00
2022-08-24T21:47:36.307Z,98855.00
2022-08-24T21:50:09.380Z,98851.00
2022-08-24T21:52:41.528Z,98847.00
2022-08-24T21:55:15.148Z,98866.00
2022-08-24T21:57:46.137Z,98841.00
2022-08-24T22:00:19.346Z,98838.00
2022-08-24T22:02:50.396Z,98845.00
2022-08-24T22:05:21.409Z,98841.00
2022-08-24T22:07:52.330Z,98840.00
2022-08-24T22:10:23.547Z,98833.00
2022-08-24T22:12:54.830Z,98838.00
2022-08-24T22:15:25.754Z,98839.00
2022-08-24T22:17:56.813Z,98840.00
2022-08-24T22:20:27.809Z,98832.00
2022-08-24T22:22:58.975Z,98830.00
2022-08-24T22:25:30.074Z,98836.00
2022-08-24T22:28:01.014Z,98826.00
2022-08-24T22:30:33.752Z,98838.00
2022-08-24T22:33:05.221Z,98843.00
2022-08-24T22:35:45.455Z,98827.00
2022-08-24T22:38:16.549Z,98833.00
2022-08-24T22:40:54.592Z,98834.00
2022-08-24T22:43:45.467Z,98835.00
2022-08-24T22:46:16.483Z,98826.00
2022-08-24T22:48:47.399Z,98839.00
2022-08-24T22:51:18.900Z,98830.00
2022-08-24T22:53:49.949Z,98826.00
2022-08-24T22:56:24.649Z,98824.00
2022-08-24T22:58:56.790Z,98822.00
2022-08-24T23:01:40.310Z,98821.00
2022-08-24T23:04:16.628Z,98818.00
2022-08-24T23:06:47.987Z,98826.00
2022-08-24T23:09:19.100Z,98822.00
2022-08-24T23:11:52.369Z,98822.00
2022-08-24T23:14:24.895Z,98815.00
2022-08-24T23:16:56.044Z,98809.00
2022-08-24T23:19:45.982Z,98812.00
2022-08-24T23:22:19.721Z,98827.00
2022-08-24T23:24:50.745Z,98809.00
2022-08-24T23:27:21.858Z,98812.00
2022-08-24T23:29:53.150Z,98809.00
2022-08-24T23:32:24.113Z,98807.00
2022-08-24T23:34:58.966Z,98812.00
2022-08-24T23:37:32.085Z,98808.00
2022-08-24T23:40:04.308Z,98809.00
2022-08-24T23:42:35.304Z,98798.00
2022-08-24T23:45:08.790Z,98807.00
2022-08-24T23:47:42.822Z,98805.00
2022-08-24T23:50:13.903Z,98794.00
2022-08-24T23:52:45.066Z,98794.00
2022-08-24T23:55:21.120Z,98792.00
2022-08-24T23:57:54.647Z,98797.00
